sensor_id;sensor_type;location;lat;lon;timestamp;P1;durP1;ratioP1;P2;durP2;ratioP2
46054;SDS011;31788;6.954;-71.872;2023-04-06T00:00:23;25.65;;;17.02;;
46054;SDS011;31788;6.954;-71.872;2023-04-06T00:02:50;24.42;;;16.27;;
46054;SDS011;31788;6.954;-71.872;2023-04-06T00:05:17;20.75;;;14.95;;
46054;SDS011;31788;6.954;-71.872;2023-04-06T00:07:45;19.25;;;15.30;;
46054;SDS011;31788;6.954;-71.872;2023-04-06T00:10:12;21.67;;;14.00;;
46054;SDS011;31788;6.954;-71.872;2023-04-06T00:12:40;16.77;;;12.02;;
46054;SDS011;31788;6.954;-71.872;2023-04-06T00:15:06;17.27;;;12.50;;
46054;SDS011;31788;6.954;-71.872;2023-04-06T00:17:33;17.60;;;11.48;;
46054;SDS011;31788;6.954;-71.872;2023-04-06T00:20:00;15.48;;;11.15;;
46054;SDS011;31788;6.954;-71.872;2023-04-06T00:22:27;16.38;;;11.95;;
46054;SDS011;31788;6.954;-71.872;2023-04-06T00:24:53;17.57;;;12.00;;
46054;SDS011;31788;6.954;-71.872;2023-04-06T00:27:20;16.73;;;12.15;;
46054;SDS011;31788;6.954;-71.872;2023-04-06T00:29:46;21.00;;;13.38;;
46054;SDS011;31788;6.954;-71.872;2023-04-06T00:32:13;14.40;;;11.13;;
46054;SDS011;31788;6.954;-71.872;2023-04-06T00:34:39;15.20;;;11.60;;
46054;SDS011;31788;6.954;-71.872;2023-04-06T00:37:06;13.65;;;10.98;;
46054;SDS011;31788;6.954;-71.872;2023-04-06T00:39:33;20.50;;;13.02;;
46054;SDS011;31788;6.954;-71.872;2023-04-06T00:41:59;20.27;;;14.18;;
46054;SDS011;31788;6.954;-71.872;2023-04-06T00:44:33;15.20;;;12.43;;
46054;SDS011;31788;6.954;-71.872;2023-04-06T00:46:59;17.38;;;11.73;;
46054;SDS011;31788;6.954;-71.872;2023-04-06T00:49:26;19.05;;;12.48;;
46054;SDS011;31788;6.954;-71.872;2023-04-06T00:51:53;16.25;;;12.35;;
46054;SDS011;31788;6.954;-71.872;2023-04-06T00:54:20;21.67;;;13.38;;
46054;SDS011;31788;6.954;-71.872;2023-04-06T00:56:46;17.13;;;12.30;;
46054;SDS011;31788;6.954;-71.872;2023-04-06T00:59:13;19.15;;;12.52;;
46054;SDS011;31788;6.954;-71.872;2023-04-06T01:01:39;15.63;;;11.73;;
46054;SDS011;31788;6.954;-71.872;2023-04-06T01:04:06;15.05;;;11.50;;
46054;SDS011;31788;6.954;-71.872;2023-04-06T01:06:33;17.10;;;11.75;;
46054;SDS011;31788;6.954;-71.872;2023-04-06T01:08:59;16.27;;;11.30;;
46054;SDS011;31788;6.954;-71.872;2023-04-06T01:11:26;17.60;;;11.20;;
46054;SDS011;31788;6.954;-71.872;2023-04-06T01:13:54;17.80;;;11.82;;
46054;SDS011;31788;6.954;-71.872;2023-04-06T01:16:21;18.90;;;11.68;;
46054;SDS011;31788;6.954;-71.872;2023-04-06T01:18:48;15.32;;;10.93;;
46054;SDS011;31788;6.954;-71.872;2023-04-06T01:21:15;15.77;;;10.85;;
46054;SDS011;31788;6.954;-71.872;2023-04-06T01:23:43;13.27;;;10.33;;
46054;SDS011;31788;6.954;-71.872;2023-04-06T01:26:10;16.87;;;10.23;;
46054;SDS011;31788;6.954;-71.872;2023-04-06T01:28:38;13.75;;;10.40;;
46054;SDS011;31788;6.954;-71.872;2023-04-06T01:31:08;15.07;;;9.80;;
46054;SDS011;31788;6.954;-71.872;2023-04-06T01:33:35;13.25;;;9.55;;
46054;SDS011;31788;6.954;-71.872;2023-04-06T01:36:03;13.35;;;9.60;;
46054;SDS011;31788;6.954;-71.872;2023-04-06T01:38:30;14.15;;;9.73;;
46054;SDS011;31788;6.954;-71.872;2023-04-06T01:40:57;13.75;;;9.48;;
46054;SDS011;31788;6.954;-71.872;2023-04-06T01:43:23;13.68;;;9.75;;
46054;SDS011;31788;6.954;-71.872;2023-04-06T01:45:50;14.88;;;9.55;;
46054;SDS011;31788;6.954;-71.872;2023-04-06T01:48:19;45.53;;;12.65;;
46054;SDS011;31788;6.954;-71.872;2023-04-06T01:50:46;18.63;;;9.93;;
46054;SDS011;31788;6.954;-71.872;2023-04-06T01:53:12;16.08;;;9.93;;
46054;SDS011;31788;6.954;-71.872;2023-04-06T01:55:39;19.20;;;10.07;;
46054;SDS011;31788;6.954;-71.872;2023-04-06T01:58:06;16.70;;;9.60;;
46054;SDS011;31788;6.954;-71.872;2023-04-06T02:00:32;14.10;;;9.50;;
46054;SDS011;31788;6.954;-71.872;2023-04-06T02:02:59;16.27;;;9.50;;
46054;SDS011;31788;6.954;-71.872;2023-04-06T02:05:26;14.68;;;9.32;;
46054;SDS011;31788;6.954;-71.872;2023-04-06T02:07:54;13.95;;;9.52;;
46054;SDS011;31788;6.954;-71.872;2023-04-06T02:10:21;14.60;;;9.50;;
46054;SDS011;31788;6.954;-71.872;2023-04-06T02:12:49;14.57;;;9.07;;
46054;SDS011;31788;6.954;-71.872;2023-04-06T02:15:16;12.23;;;9.15;;
46054;SDS011;31788;6.954;-71.872;2023-04-06T02:17:43;14.05;;;9.32;;
46054;SDS011;31788;6.954;-71.872;2023-04-06T02:20:10;12.00;;;9.00;;
46054;SDS011;31788;6.954;-71.872;2023-04-06T02:22:36;13.35;;;9.57;;
46054;SDS011;31788;6.954;-71.872;2023-04-06T02:25:03;15.13;;;9.68;;
46054;SDS011;31788;6.954;-71.872;2023-04-06T02:27:30;15.50;;;10.55;;
46054;SDS011;31788;6.954;-71.872;2023-04-06T02:29:56;17.63;;;9.95;;
46054;SDS011;31788;6.954;-71.872;2023-04-06T02:32:23;12.32;;;9.60;;
46054;SDS011;31788;6.954;-71.872;2023-04-06T02:34:50;14.02;;;9.65;;
46054;SDS011;31788;6.954;-71.872;2023-04-06T02:37:17;10.95;;;9.10;;
46054;SDS011;31788;6.954;-71.872;2023-04-06T02:39:43;11.18;;;9.02;;
46054;SDS011;31788;6.954;-71.872;2023-04-06T02:42:11;11.87;;;9.00;;
46054;SDS011;31788;6.954;-71.872;2023-04-06T02:44:40;13.32;;;8.80;;
46054;SDS011;31788;6.954;-71.872;2023-04-06T02:47:07;11.70;;;9.35;;
46054;SDS011;31788;6.954;-71.872;2023-04-06T02:49:35;11.98;;;10.05;;
46054;SDS011;31788;6.954;-71.872;2023-04-06T02:52:02;11.20;;;9.07;;
46054;SDS011;31788;6.954;-71.872;2023-04-06T02:54:29;13.15;;;9.45;;
46054;SDS011;31788;6.954;-71.872;2023-04-06T02:56:55;14.52;;;10.80;;
46054;SDS011;31788;6.954;-71.872;2023-04-06T02:59:22;18.33;;;9.95;;
46054;SDS011;31788;6.954;-71.872;2023-04-06T03:01:49;15.32;;;10.10;;
46054;SDS011;31788;6.954;-71.872;2023-04-06T03:04:15;14.38;;;10.43;;
46054;SDS011;31788;6.954;-71.872;2023-04-06T03:06:42;16.73;;;11.83;;
46054;SDS011;31788;6.954;-71.872;2023-04-06T03:09:09;14.93;;;10.43;;
46054;SDS011;31788;6.954;-71.872;2023-04-06T03:11:35;15.48;;;10.68;;
46054;SDS011;31788;6.954;-71.872;2023-04-06T03:14:02;14.07;;;10.18;;
46054;SDS011;31788;6.954;-71.872;2023-04-06T03:16:28;14.40;;;9.50;;
46054;SDS011;31788;6.954;-71.872;2023-04-06T03:18:56;12.60;;;9.05;;
46054;SDS011;31788;6.954;-71.872;2023-04-06T03:21:24;11.65;;;8.63;;
46054;SDS011;31788;6.954;-71.872;2023-04-06T03:23:51;11.82;;;8.85;;
46054;SDS011;31788;6.954;-71.872;2023-04-06T03:26:17;13.00;;;9.43;;
46054;SDS011;31788;6.954;-71.872;2023-04-06T03:28:44;11.75;;;8.80;;
46054;SDS011;31788;6.954;-71.872;2023-04-06T03:31:11;11.85;;;8.77;;
46054;SDS011;31788;6.954;-71.872;2023-04-06T03:33:37;12.00;;;8.55;;
46054;SDS011;31788;6.954;-71.872;2023-04-06T03:36:05;12.00;;;8.55;;
46054;SDS011;31788;6.954;-71.872;2023-04-06T03:38:32;11.10;;;8.52;;
46054;SDS011;31788;6.954;-71.872;2023-04-06T03:40:59;10.40;;;8.45;;
46054;SDS011;31788;6.954;-71.872;2023-04-06T03:43:25;12.77;;;9.80;;
46054;SDS011;31788;6.954;-71.872;2023-04-06T03:45:52;15.23;;;9.98;;
46054;SDS011;31788;6.954;-71.872;2023-04-06T03:48:19;12.55;;;9.40;;
46054;SDS011;31788;6.954;-71.872;2023-04-06T03:50:45;13.47;;;11.23;;
46054;SDS011;31788;6.954;-71.872;2023-04-06T03:53:12;15.07;;;12.05;;
46054;SDS011;31788;6.954;-71.872;2023-04-06T03:55:38;13.90;;;11.50;;
46054;SDS011;31788;6.954;-71.872;2023-04-06T03:58:05;15.50;;;11.00;;
46054;SDS011;31788;6.954;-71.872;2023-04-06T04:00:32;12.80;;;9.80;;
46054;SDS011;31788;6.954;-71.872;2023-04-06T04:02:59;13.20;;;9.60;;
46054;SDS011;31788;6.954;-71.872;2023-04-06T04:05:27;12.73;;;9.38;;
46054;SDS011;31788;6.954;-71.872;2023-04-06T04:07:54;11.82;;;9.43;;
46054;SDS011;31788;6.954;-71.872;2023-04-06T04:10:21;13.50;;;9.47;;
46054;SDS011;31788;6.954;-71.872;2023-04-06T04:12:47;13.05;;;9.13;;
46054;SDS011;31788;6.954;-71.872;2023-04-06T04:15:14;13.02;;;9.35;;
46054;SDS011;31788;6.954;-71.872;2023-04-06T04:17:40;11.87;;;9.50;;
46054;SDS011;31788;6.954;-71.872;2023-04-06T04:20:12;10.52;;;9.05;;
46054;SDS011;31788;6.954;-71.872;2023-04-06T04:22:38;14.45;;;9.18;;
46054;SDS011;31788;6.954;-71.872;2023-04-06T04:25:07;12.25;;;9.07;;
46054;SDS011;31788;6.954;-71.872;2023-04-06T04:27:34;12.70;;;9.23;;
46054;SDS011;31788;6.954;-71.872;2023-04-06T04:30:01;11.37;;;8.63;;
46054;SDS011;31788;6.954;-71.872;2023-04-06T04:32:28;10.70;;;8.40;;
46054;SDS011;31788;6.954;-71.872;2023-04-06T04:34:54;10.87;;;8.57;;
46054;SDS011;31788;6.954;-71.872;2023-04-06T04:37:21;12.50;;;8.68;;
46054;SDS011;31788;6.954;-71.872;2023-04-06T04:39:48;10.50;;;8.50;;
46054;SDS011;31788;6.954;-71.872;2023-04-06T04:42:14;10.73;;;8.30;;
46054;SDS011;31788;6.954;-71.872;2023-04-06T04:44:41;12.40;;;8.75;;
46054;SDS011;31788;6.954;-71.872;2023-04-06T04:47:08;12.00;;;8.35;;
46054;SDS011;31788;6.954;-71.872;2023-04-06T04:49:34;9.38;;;7.85;;
46054;SDS011;31788;6.954;-71.872;2023-04-06T04:52:01;11.43;;;8.63;;
46054;SDS011;31788;6.954;-71.872;2023-04-06T04:54:27;10.75;;;8.52;;
46054;SDS011;31788;6.954;-71.872;2023-04-06T04:56:54;11.65;;;8.63;;
46054;SDS011;31788;6.954;-71.872;2023-04-06T04:59:21;8.95;;;7.78;;
46054;SDS011;31788;6.954;-71.872;2023-04-06T05:01:49;11.20;;;8.40;;
46054;SDS011;31788;6.954;-71.872;2023-04-06T05:04:15;10.45;;;8.43;;
46054;SDS011;31788;6.954;-71.872;2023-04-06T05:06:42;11.48;;;8.75;;
46054;SDS011;31788;6.954;-71.872;2023-04-06T05:09:08;13.05;;;8.80;;
46054;SDS011;31788;6.954;-71.872;2023-04-06T05:11:35;9.40;;;8.27;;
46054;SDS011;31788;6.954;-71.872;2023-04-06T05:14:02;12.25;;;8.27;;
46054;SDS011;31788;6.954;-71.872;2023-04-06T05:16:28;10.00;;;8.18;;
46054;SDS011;31788;6.954;-71.872;2023-04-06T05:18:55;10.55;;;8.68;;
46054;SDS011;31788;6.954;-71.872;2023-04-06T05:21:22;11.27;;;8.10;;
46054;SDS011;31788;6.954;-71.872;2023-04-06T05:23:48;12.80;;;8.30;;
46054;SDS011;31788;6.954;-71.872;2023-04-06T05:26:15;10.43;;;8.60;;
46054;SDS011;31788;6.954;-71.872;2023-04-06T05:28:41;11.70;;;8.07;;
46054;SDS011;31788;6.954;-71.872;2023-04-06T05:31:09;9.93;;;7.88;;
46054;SDS011;31788;6.954;-71.872;2023-04-06T05:33:36;11.80;;;8.68;;
46054;SDS011;31788;6.954;-71.872;2023-04-06T05:36:02;11.90;;;8.10;;
46054;SDS011;31788;6.954;-71.872;2023-04-06T05:38:32;9.47;;;8.03;;
46054;SDS011;31788;6.954;-71.872;2023-04-06T05:40:58;9.90;;;8.02;;
46054;SDS011;31788;6.954;-71.872;2023-04-06T05:43:25;11.07;;;8.52;;
46054;SDS011;31788;6.954;-71.872;2023-04-06T05:45:51;11.02;;;8.10;;
46054;SDS011;31788;6.954;-71.872;2023-04-06T05:48:18;11.32;;;8.10;;
46054;SDS011;31788;6.954;-71.872;2023-04-06T05:50:49;10.93;;;8.45;;
46054;SDS011;31788;6.954;-71.872;2023-04-06T05:53:16;11.25;;;8.20;;
46054;SDS011;31788;6.954;-71.872;2023-04-06T05:55:43;11.63;;;8.27;;
46054;SDS011;31788;6.954;-71.872;2023-04-06T05:58:09;9.57;;;8.23;;
46054;SDS011;31788;6.954;-71.872;2023-04-06T06:00:36;10.68;;;7.97;;
46054;SDS011;31788;6.954;-71.872;2023-04-06T06:03:03;14.60;;;8.70;;
46054;SDS011;31788;6.954;-71.872;2023-04-06T06:05:31;10.88;;;8.00;;
46054;SDS011;31788;6.954;-71.872;2023-04-06T06:07:57;11.35;;;8.40;;
46054;SDS011;31788;6.954;-71.872;2023-04-06T06:10:27;13.15;;;8.40;;
46054;SDS011;31788;6.954;-71.872;2023-04-06T06:12:53;11.30;;;8.10;;
46054;SDS011;31788;6.954;-71.872;2023-04-06T06:15:20;9.85;;;7.95;;
46054;SDS011;31788;6.954;-71.872;2023-04-06T06:17:47;10.57;;;8.18;;
46054;SDS011;31788;6.954;-71.872;2023-04-06T06:20:13;9.98;;;7.70;;
46054;SDS011;31788;6.954;-71.872;2023-04-06T06:22:40;11.55;;;8.02;;
46054;SDS011;31788;6.954;-71.872;2023-04-06T06:25:07;12.07;;;8.13;;
46054;SDS011;31788;6.954;-71.872;2023-04-06T06:27:34;10.18;;;7.97;;
46054;SDS011;31788;6.954;-71.872;2023-04-06T06:30:01;12.52;;;8.38;;
46054;SDS011;31788;6.954;-71.872;2023-04-06T06:32:28;10.43;;;8.32;;
46054;SDS011;31788;6.954;-71.872;2023-04-06T06:34:54;11.63;;;8.00;;
46054;SDS011;31788;6.954;-71.872;2023-04-06T06:37:21;10.77;;;8.23;;
46054;SDS011;31788;6.954;-71.872;2023-04-06T06:39:48;13.07;;;8.57;;
46054;SDS011;31788;6.954;-71.872;2023-04-06T06:42:14;10.83;;;8.33;;
46054;SDS011;31788;6.954;-71.872;2023-04-06T06:44:41;10.00;;;8.13;;
46054;SDS011;31788;6.954;-71.872;2023-04-06T06:47:07;15.85;;;9.98;;
46054;SDS011;31788;6.954;-71.872;2023-04-06T06:49:34;10.73;;;8.17;;
46054;SDS011;31788;6.954;-71.872;2023-04-06T06:52:01;10.55;;;7.90;;
46054;SDS011;31788;6.954;-71.872;2023-04-06T06:54:27;10.32;;;8.30;;
46054;SDS011;31788;6.954;-71.872;2023-04-06T06:56:54;10.30;;;8.27;;
46054;SDS011;31788;6.954;-71.872;2023-04-06T06:59:21;10.48;;;8.35;;
46054;SDS011;31788;6.954;-71.872;2023-04-06T07:01:47;14.15;;;8.52;;
46054;SDS011;31788;6.954;-71.872;2023-04-06T07:04:15;11.38;;;8.13;;
46054;SDS011;31788;6.954;-71.872;2023-04-06T07:06:41;10.75;;;8.20;;
46054;SDS011;31788;6.954;-71.872;2023-04-06T07:09:08;10.48;;;8.20;;
46054;SDS011;31788;6.954;-71.872;2023-04-06T07:11:35;13.53;;;9.10;;
46054;SDS011;31788;6.954;-71.872;2023-04-06T07:14:01;10.60;;;9.32;;
46054;SDS011;31788;6.954;-71.872;2023-04-06T07:16:28;12.73;;;9.07;;
46054;SDS011;31788;6.954;-71.872;2023-04-06T07:18:54;10.98;;;8.13;;
46054;SDS011;31788;6.954;-71.872;2023-04-06T07:21:22;13.35;;;8.32;;
46054;SDS011;31788;6.954;-71.872;2023-04-06T07:23:49;9.80;;;8.07;;
46054;SDS011;31788;6.954;-71.872;2023-04-06T07:26:16;11.15;;;8.68;;
46054;SDS011;31788;6.954;-71.872;2023-04-06T07:28:44;12.05;;;8.63;;
46054;SDS011;31788;6.954;-71.872;2023-04-06T07:31:10;10.88;;;8.38;;
46054;SDS011;31788;6.954;-71.872;2023-04-06T07:33:37;11.15;;;8.27;;
46054;SDS011;31788;6.954;-71.872;2023-04-06T07:36:03;9.73;;;7.90;;
46054;SDS011;31788;6.954;-71.872;2023-04-06T07:38:30;11.30;;;8.13;;
46054;SDS011;31788;6.954;-71.872;2023-04-06T07:40:57;11.40;;;8.27;;
46054;SDS011;31788;6.954;-71.872;2023-04-06T07:43:23;10.32;;;8.18;;
46054;SDS011;31788;6.954;-71.872;2023-04-06T07:45:50;10.43;;;8.32;;
46054;SDS011;31788;6.954;-71.872;2023-04-06T07:48:17;11.77;;;8.30;;
46054;SDS011;31788;6.954;-71.872;2023-04-06T07:50:43;9.45;;;8.45;;
46054;SDS011;31788;6.954;-71.872;2023-04-06T07:53:10;9.97;;;8.10;;
46054;SDS011;31788;6.954;-71.872;2023-04-06T07:55:37;10.32;;;8.10;;
46054;SDS011;31788;6.954;-71.872;2023-04-06T07:58:03;11.63;;;8.40;;
46054;SDS011;31788;6.954;-71.872;2023-04-06T08:00:30;10.45;;;8.30;;
46054;SDS011;31788;6.954;-71.872;2023-04-06T08:02:57;12.43;;;8.90;;
46054;SDS011;31788;6.954;-71.872;2023-04-06T08:05:23;11.70;;;8.48;;
46054;SDS011;31788;6.954;-71.872;2023-04-06T08:07:50;11.05;;;7.97;;
46054;SDS011;31788;6.954;-71.872;2023-04-06T08:10:17;13.13;;;8.40;;
46054;SDS011;31788;6.954;-71.872;2023-04-06T08:12:43;10.90;;;8.18;;
46054;SDS011;31788;6.954;-71.872;2023-04-06T08:15:10;11.80;;;8.30;;
46054;SDS011;31788;6.954;-71.872;2023-04-06T08:17:37;9.50;;;7.97;;
46054;SDS011;31788;6.954;-71.872;2023-04-06T08:20:03;10.98;;;7.80;;
46054;SDS011;31788;6.954;-71.872;2023-04-06T08:22:30;9.35;;;8.13;;
46054;SDS011;31788;6.954;-71.872;2023-04-06T08:24:57;8.60;;;7.50;;
46054;SDS011;31788;6.954;-71.872;2023-04-06T08:27:23;12.02;;;7.97;;
46054;SDS011;31788;6.954;-71.872;2023-04-06T08:29:50;9.52;;;8.02;;
46054;SDS011;31788;6.954;-71.872;2023-04-06T08:32:16;11.77;;;8.07;;
46054;SDS011;31788;6.954;-71.872;2023-04-06T08:34:43;10.57;;;8.27;;
46054;SDS011;31788;6.954;-71.872;2023-04-06T08:37:10;11.70;;;7.78;;
46054;SDS011;31788;6.954;-71.872;2023-04-06T08:39:36;11.05;;;8.13;;
46054;SDS011;31788;6.954;-71.872;2023-04-06T08:42:03;11.30;;;8.18;;
46054;SDS011;31788;6.954;-71.872;2023-04-06T08:44:31;11.02;;;8.50;;
46054;SDS011;31788;6.954;-71.872;2023-04-06T08:46:59;11.88;;;8.40;;
46054;SDS011;31788;6.954;-71.872;2023-04-06T08:49:25;9.60;;;8.05;;
46054;SDS011;31788;6.954;-71.872;2023-04-06T08:51:53;11.90;;;8.23;;
46054;SDS011;31788;6.954;-71.872;2023-04-06T08:54:21;10.45;;;8.13;;
46054;SDS011;31788;6.954;-71.872;2023-04-06T08:56:47;11.07;;;8.27;;
46054;SDS011;31788;6.954;-71.872;2023-04-06T08:59:14;10.27;;;7.90;;
46054;SDS011;31788;6.954;-71.872;2023-04-06T09:01:42;11.30;;;8.30;;
46054;SDS011;31788;6.954;-71.872;2023-04-06T09:04:10;10.35;;;8.20;;
46054;SDS011;31788;6.954;-71.872;2023-04-06T09:06:38;11.25;;;8.25;;
46054;SDS011;31788;6.954;-71.872;2023-04-06T09:09:05;11.25;;;8.32;;
46054;SDS011;31788;6.954;-71.872;2023-04-06T09:11:42;11.02;;;8.13;;
46054;SDS011;31788;6.954;-71.872;2023-04-06T09:14:15;11.95;;;8.63;;
46054;SDS011;31788;6.954;-71.872;2023-04-06T09:16:45;11.02;;;8.18;;
46054;SDS011;31788;6.954;-71.872;2023-04-06T09:19:12;11.23;;;8.20;;
46054;SDS011;31788;6.954;-71.872;2023-04-06T09:21:39;10.95;;;8.82;;
46054;SDS011;31788;6.954;-71.872;2023-04-06T09:24:06;10.40;;;8.07;;
46054;SDS011;31788;6.954;-71.872;2023-04-06T09:26:43;11.57;;;8.63;;
46054;SDS011;31788;6.954;-71.872;2023-04-06T09:29:21;11.57;;;8.45;;
46054;SDS011;31788;6.954;-71.872;2023-04-06T09:31:51;14.30;;;8.98;;
46054;SDS011;31788;6.954;-71.872;2023-04-06T09:34:27;9.98;;;8.30;;
46054;SDS011;31788;6.954;-71.872;2023-04-06T09:36:53;11.77;;;8.20;;
46054;SDS011;31788;6.954;-71.872;2023-04-06T09:39:21;9.80;;;8.40;;
46054;SDS011;31788;6.954;-71.872;2023-04-06T09:41:50;11.63;;;9.00;;
46054;SDS011;31788;6.954;-71.872;2023-04-06T09:44:17;11.47;;;8.97;;
46054;SDS011;31788;6.954;-71.872;2023-04-06T09:46:45;12.05;;;8.73;;
46054;SDS011;31788;6.954;-71.872;2023-04-06T09:49:13;11.00;;;9.18;;
46054;SDS011;31788;6.954;-71.872;2023-04-06T09:51:41;11.93;;;8.52;;
46054;SDS011;31788;6.954;-71.872;2023-04-06T09:54:15;11.88;;;8.55;;
46054;SDS011;31788;6.954;-71.872;2023-04-06T10:00:04;11.35;;;8.57;;
46054;SDS011;31788;6.954;-71.872;2023-04-06T10:05:33;11.75;;;8.77;;
46054;SDS011;31788;6.954;-71.872;2023-04-06T10:08:08;12.43;;;8.90;;
46054;SDS011;31788;6.954;-71.872;2023-04-06T10:10:36;11.10;;;9.07;;
46054;SDS011;31788;6.954;-71.872;2023-04-06T10:13:03;10.63;;;8.75;;
46054;SDS011;31788;6.954;-71.872;2023-04-06T10:15:31;12.75;;;8.82;;
46054;SDS011;31788;6.954;-71.872;2023-04-06T10:17:58;10.55;;;8.60;;
46054;SDS011;31788;6.954;-71.872;2023-04-06T10:20:39;12.95;;;9.27;;
46054;SDS011;31788;6.954;-71.872;2023-04-06T10:25:51;11.15;;;8.80;;
46054;SDS011;31788;6.954;-71.872;2023-04-06T10:28:20;12.43;;;8.65;;
46054;SDS011;31788;6.954;-71.872;2023-04-06T10:30:46;11.35;;;8.40;;
46054;SDS011;31788;6.954;-71.872;2023-04-06T10:33:13;11.90;;;8.63;;
46054;SDS011;31788;6.954;-71.872;2023-04-06T10:35:40;10.13;;;8.40;;
46054;SDS011;31788;6.954;-71.872;2023-04-06T10:38:07;14.43;;;8.80;;
46054;SDS011;31788;6.954;-71.872;2023-04-06T10:40:38;11.27;;;8.57;;
46054;SDS011;31788;6.954;-71.872;2023-04-06T10:43:07;12.97;;;8.93;;
46054;SDS011;31788;6.954;-71.872;2023-04-06T10:45:38;12.50;;;8.77;;
46054;SDS011;31788;6.954;-71.872;2023-04-06T10:48:15;11.60;;;8.48;;
46054;SDS011;31788;6.954;-71.872;2023-04-06T10:50:46;11.20;;;8.70;;
46054;SDS011;31788;6.954;-71.872;2023-04-06T10:53:23;12.65;;;8.70;;
46054;SDS011;31788;6.954;-71.872;2023-04-06T10:55:51;12.82;;;8.80;;
46054;SDS011;31788;6.954;-71.872;2023-04-06T10:58:27;13.98;;;9.52;;
46054;SDS011;31788;6.954;-71.872;2023-04-06T11:00:56;12.60;;;9.90;;
46054;SDS011;31788;6.954;-71.872;2023-04-06T11:03:22;11.85;;;9.20;;
46054;SDS011;31788;6.954;-71.872;2023-04-06T11:05:50;13.55;;;8.45;;
46054;SDS011;31788;6.954;-71.872;2023-04-06T11:11:30;12.95;;;9.68;;
46054;SDS011;31788;6.954;-71.872;2023-04-06T11:13:52;11.80;;;8.95;;
46054;SDS011;31788;6.954;-71.872;2023-04-06T11:16:24;13.18;;;9.02;;
46054;SDS011;31788;6.954;-71.872;2023-04-06T11:19:04;13.27;;;8.85;;
46054;SDS011;31788;6.954;-71.872;2023-04-06T11:24:13;11.88;;;8.80;;
46054;SDS011;31788;6.954;-71.872;2023-04-06T11:26:48;13.05;;;9.15;;
46054;SDS011;31788;6.954;-71.872;2023-04-06T11:29:19;12.50;;;9.27;;
46054;SDS011;31788;6.954;-71.872;2023-04-06T11:31:48;13.98;;;9.07;;
46054;SDS011;31788;6.954;-71.872;2023-04-06T11:34:20;13.80;;;10.30;;
46054;SDS011;31788;6.954;-71.872;2023-04-06T11:36:48;13.43;;;9.75;;
46054;SDS011;31788;6.954;-71.872;2023-04-06T11:39:20;13.53;;;9.40;;
46054;SDS011;31788;6.954;-71.872;2023-04-06T11:41:51;12.65;;;9.80;;
46054;SDS011;31788;6.954;-71.872;2023-04-06T11:44:29;15.10;;;9.65;;
46054;SDS011;31788;6.954;-71.872;2023-04-06T11:47:02;10.35;;;9.10;;
46054;SDS011;31788;6.954;-71.872;2023-04-06T11:49:30;13.10;;;9.88;;
46054;SDS011;31788;6.954;-71.872;2023-04-06T11:51:58;12.32;;;9.95;;
46054;SDS011;31788;6.954;-71.872;2023-04-06T11:54:32;13.00;;;9.70;;
46054;SDS011;31788;6.954;-71.872;2023-04-06T11:57:01;12.00;;;9.35;;
46054;SDS011;31788;6.954;-71.872;2023-04-06T11:59:28;13.18;;;9.30;;
46054;SDS011;31788;6.954;-71.872;2023-04-06T12:01:55;12.52;;;9.40;;
46054;SDS011;31788;6.954;-71.872;2023-04-06T12:04:25;12.13;;;9.30;;
46054;SDS011;31788;6.954;-71.872;2023-04-06T12:06:51;12.50;;;9.43;;
46054;SDS011;31788;6.954;-71.872;2023-04-06T12:09:18;12.77;;;9.48;;
46054;SDS011;31788;6.954;-71.872;2023-04-06T12:11:45;12.35;;;9.40;;
46054;SDS011;31788;6.954;-71.872;2023-04-06T12:14:11;12.65;;;9.50;;
46054;SDS011;31788;6.954;-71.872;2023-04-06T12:16:38;12.43;;;9.93;;
46054;SDS011;31788;6.954;-71.872;2023-04-06T12:19:06;13.00;;;10.20;;
46054;SDS011;31788;6.954;-71.872;2023-04-06T12:21:33;13.77;;;10.20;;
46054;SDS011;31788;6.954;-71.872;2023-04-06T12:24:02;13.55;;;9.45;;
46054;SDS011;31788;6.954;-71.872;2023-04-06T12:26:29;11.77;;;9.85;;
46054;SDS011;31788;6.954;-71.872;2023-04-06T12:28:57;12.38;;;9.73;;
46054;SDS011;31788;6.954;-71.872;2023-04-06T12:31:32;12.40;;;9.45;;
46054;SDS011;31788;6.954;-71.872;2023-04-06T12:34:04;12.48;;;9.45;;
46054;SDS011;31788;6.954;-71.872;2023-04-06T12:36:30;11.73;;;9.50;;
46054;SDS011;31788;6.954;-71.872;2023-04-06T12:38:57;11.85;;;9.68;;
46054;SDS011;31788;6.954;-71.872;2023-04-06T12:41:25;14.00;;;10.40;;
46054;SDS011;31788;6.954;-71.872;2023-04-06T12:43:53;15.60;;;10.43;;
46054;SDS011;31788;6.954;-71.872;2023-04-06T12:46:19;16.70;;;10.35;;
46054;SDS011;31788;6.954;-71.872;2023-04-06T12:48:46;13.03;;;10.00;;
46054;SDS011;31788;6.954;-71.872;2023-04-06T12:51:13;15.18;;;10.38;;
46054;SDS011;31788;6.954;-71.872;2023-04-06T12:53:40;18.65;;;11.25;;
46054;SDS011;31788;6.954;-71.872;2023-04-06T12:56:13;15.15;;;11.18;;
46054;SDS011;31788;6.954;-71.872;2023-04-06T12:58:42;16.42;;;10.68;;
46054;SDS011;31788;6.954;-71.872;2023-04-06T13:01:09;15.53;;;10.87;;
46054;SDS011;31788;6.954;-71.872;2023-04-06T13:03:38;14.53;;;10.87;;
46054;SDS011;31788;6.954;-71.872;2023-04-06T13:06:05;16.10;;;11.50;;
46054;SDS011;31788;6.954;-71.872;2023-04-06T13:08:34;17.27;;;11.70;;
46054;SDS011;31788;6.954;-71.872;2023-04-06T13:11:02;17.00;;;12.15;;
46054;SDS011;31788;6.954;-71.872;2023-04-06T13:13:30;20.02;;;12.13;;
46054;SDS011;31788;6.954;-71.872;2023-04-06T13:16:00;16.80;;;12.25;;
46054;SDS011;31788;6.954;-71.872;2023-04-06T13:18:30;15.95;;;11.30;;
46054;SDS011;31788;6.954;-71.872;2023-04-06T13:20:57;18.88;;;12.73;;
46054;SDS011;31788;6.954;-71.872;2023-04-06T13:23:27;16.80;;;12.40;;
46054;SDS011;31788;6.954;-71.872;2023-04-06T13:26:00;18.50;;;11.88;;
46054;SDS011;31788;6.954;-71.872;2023-04-06T13:28:28;17.52;;;11.40;;
46054;SDS011;31788;6.954;-71.872;2023-04-06T13:30:55;16.23;;;11.23;;
46054;SDS011;31788;6.954;-71.872;2023-04-06T13:33:23;17.30;;;11.95;;
46054;SDS011;31788;6.954;-71.872;2023-04-06T13:35:50;17.35;;;12.35;;
46054;SDS011;31788;6.954;-71.872;2023-04-06T13:38:17;16.83;;;12.23;;
46054;SDS011;31788;6.954;-71.872;2023-04-06T13:40:43;16.60;;;12.18;;
46054;SDS011;31788;6.954;-71.872;2023-04-06T13:43:10;17.70;;;12.23;;
46054;SDS011;31788;6.954;-71.872;2023-04-06T13:45:37;20.67;;;13.23;;
46054;SDS011;31788;6.954;-71.872;2023-04-06T13:48:04;17.75;;;11.98;;
46054;SDS011;31788;6.954;-71.872;2023-04-06T13:50:32;17.10;;;12.50;;
46054;SDS011;31788;6.954;-71.872;2023-04-06T13:52:59;17.63;;;12.38;;
46054;SDS011;31788;6.954;-71.872;2023-04-06T13:55:26;18.60;;;12.90;;
46054;SDS011;31788;6.954;-71.872;2023-04-06T13:57:52;17.63;;;13.23;;
46054;SDS011;31788;6.954;-71.872;2023-04-06T14:00:20;18.70;;;12.40;;
46054;SDS011;31788;6.954;-71.872;2023-04-06T14:02:47;17.42;;;12.45;;
46054;SDS011;31788;6.954;-71.872;2023-04-06T14:05:14;22.27;;;12.85;;
46054;SDS011;31788;6.954;-71.872;2023-04-06T14:07:41;17.17;;;12.53;;
46054;SDS011;31788;6.954;-71.872;2023-04-06T14:10:08;17.45;;;12.65;;
46054;SDS011;31788;6.954;-71.872;2023-04-06T14:12:42;17.75;;;13.27;;
46054;SDS011;31788;6.954;-71.872;2023-04-06T14:15:10;19.33;;;12.30;;
46054;SDS011;31788;6.954;-71.872;2023-04-06T14:17:37;21.80;;;13.40;;
46054;SDS011;31788;6.954;-71.872;2023-04-06T14:20:05;23.27;;;13.23;;
46054;SDS011;31788;6.954;-71.872;2023-04-06T14:22:32;17.38;;;13.68;;
46054;SDS011;31788;6.954;-71.872;2023-04-06T14:24:59;18.17;;;13.02;;
46054;SDS011;31788;6.954;-71.872;2023-04-06T14:27:26;18.15;;;13.23;;
46054;SDS011;31788;6.954;-71.872;2023-04-06T14:29:53;20.85;;;13.20;;
46054;SDS011;31788;6.954;-71.872;2023-04-06T14:32:20;18.80;;;13.87;;
46054;SDS011;31788;6.954;-71.872;2023-04-06T14:34:47;18.95;;;13.60;;